Observation data for Goodlett on 05/24/2020      Previous  Date  Next       Current Mesonet Observations  Soil Data  Daily Summary Page  Observations in Plain Language
KGDS 240500Z 14014KT 18/15 A2984 RMK A01 T01790153  RH  089%=      5-min Rain = 0.01
KGDS 240505Z 13017G23KT 18/15 A2982 RMK A01 T01790153  RH  089%=      5-min Rain = 0.01
KGDS 240510Z 13019KT 18/15 A298 RMK A01 T01800152  RH  087%=      5-min Rain = 0
KGDS 240515Z 12018G23KT 18/15 A2978 RMK A01 T01790153  RH  088%=      5-min Rain = 0.01
KGDS 240520Z 11019G24KT 18/15 A2976 RMK A01 T01800152  RH  087%=      5-min Rain = 0
KGDS 240525Z 10018G23KT 18/15 A2975 RMK A01 T01820150  RH  086%=      5-min Rain = 0
KGDS 240530Z 10018KT 18/15 A2973 RMK A01 T01840147  RH  083%=      5-min Rain = 0
KGDS 240535Z 10020G25KT 19/15 A2971 RMK A01 T01870145  RH  080%=      5-min Rain = 0
KGDS 240540Z 10022G31KT 19/14 A2968 RMK A01 T01880144  RH  079%=      5-min Rain = 0
KGDS 240545Z 09021G26KT 19/14 A2968 RMK A01 T01920141  RH  075%=      5-min Rain = 0
KGDS 240550Z 08023G30KT 19/14 A2969 RMK A01 T01930141  RH  075%=      5-min Rain = 0
KGDS 240555Z 09021G26KT 19/14 A2969 RMK A01 T01920142  RH  076%=      5-min Rain = 0
KGDS 240600Z 09018KT 19/14 A2969 RMK A01 T01910141  RH  076%=      5-min Rain = 0
KGDS 240605Z 08015G22KT 20/14 A2971 RMK A01 T01950140  RH  074%=      5-min Rain = 0
KGDS 240610Z 09012KT 20/14 A2971 RMK A01 T01950139  RH  073%=      5-min Rain = 0
KGDS 240615Z 10011G17KT 20/14 A2973 RMK A01 T01970137  RH  071%=      5-min Rain = 0
KGDS 240620Z 10010KT 20/14 A2974 RMK A01 T01980136  RH  071%=      5-min Rain = 0
KGDS 240625Z 12007KT 20/14 A2974 RMK A01 T01960139  RH  072%=      5-min Rain = 0
KGDS 240630Z 15009G17KT 19/14 A2976 RMK A01 T01910143  RH  077%=      5-min Rain = 0
KGDS 240635Z 16015KT 19/14 A2977 RMK A01 T01920142  RH  076%=      5-min Rain = 0
KGDS 240640Z 14011KT 19/14 A2976 RMK A01 T01940140  RH  074%=      5-min Rain = 0
KGDS 240645Z 16008KT 19/14 A2978 RMK A01 T01920142  RH  076%=      5-min Rain = 0
KGDS 240650Z 18010KT 19/14 A2979 RMK A01 T01930140  RH  075%=      5-min Rain = 0
KGDS 240655Z 17009KT 19/14 A2979 RMK A01 T01920141  RH  075%=      5-min Rain = 0
KGDS 240700Z 15007KT 19/14 A2979 RMK A01 T01880143  RH  078%=      5-min Rain = 0
KGDS 240705Z 15006KT 19/15 A2979 RMK A01 T01850145  RH  081%=      5-min Rain = 0
KGDS 240710Z 16004KT 19/15 A2979 RMK A01 T01850145  RH  081%=      5-min Rain = 0
KGDS 240715Z 18002KT 18/15 A2979 RMK A01 T01840146  RH  082%=      5-min Rain = 0
KGDS 240720Z 07001KT 18/15 A2978 RMK A01 T01840146  RH  082%=      5-min Rain = 0
KGDS 240725Z 03003KT 18/15 A2977 RMK A01 T01820148  RH  085%=      5-min Rain = 0
KGDS 240730Z 02003KT 18/15 A2977 RMK A01 T01790149  RH  086%=      5-min Rain = 0
KGDS 240735Z 02004KT 18/15 A2977 RMK A01 T01770149  RH  087%=      5-min Rain = 0
KGDS 240740Z 35007KT 18/15 A2977 RMK A01 T01760149  RH  088%=      5-min Rain = 0
KGDS 240745Z 34008KT 18/15 A2977 RMK A01 T01750151  RH  089%=      5-min Rain = 0
KGDS 240750Z 34007KT 18/15 A2977 RMK A01 T01770151  RH  089%=      5-min Rain = 0
KGDS 240755Z 35007KT 18/15 A2978 RMK A01 T01770150  RH  088%=      5-min Rain = 0
KGDS 240800Z 35006KT 18/15 A2977 RMK A01 T01760150  RH  089%=      5-min Rain = 0
KGDS 240805Z 35007KT 18/15 A2978 RMK A01 T01750149  RH  088%=      5-min Rain = 0
KGDS 240810Z 35007KT 18/15 A2978 RMK A01 T01750149  RH  089%=      5-min Rain = 0
KGDS 240815Z 05005KT 17/15 A298 RMK A01 T01740149  RH  089%=      5-min Rain = 0
KGDS 240820Z 07005KT 17/15 A298 RMK A01 T01740150  RH  090%=      5-min Rain = 0
KGDS 240825Z 07005KT 17/15 A298 RMK A01 T01740151  RH  090%=      5-min Rain = 0
KGDS 240830Z 11003KT 18/15 A2981 RMK A01 T01750150  RH  089%=      5-min Rain = 0
KGDS 240835Z 13003KT 18/15 A2981 RMK A01 T01750149  RH  088%=      5-min Rain = 0
KGDS 240840Z 17002KT 18/15 A298 RMK A01 T01760151  RH  089%=      5-min Rain = 0
KGDS 240845Z 15002KT 18/15 A298 RMK A01 T01760150  RH  089%=      5-min Rain = 0
KGDS 240850Z 14002KT 18/15 A298 RMK A01 T01760150  RH  089%=      5-min Rain = 0
KGDS 240855Z 18002KT 18/15 A298 RMK A01 T01750151  RH  089%=      5-min Rain = 0
KGDS 240900Z 20004KT 18/15 A298 RMK A01 T01760152  RH  090%=      5-min Rain = 0
KGDS 240905Z 19004KT 18/15 A298 RMK A01 T01760153  RH  091%=      5-min Rain = 0
KGDS 240910Z 18003KT 18/15 A298 RMK A01 T01750153  RH  091%=      5-min Rain = 0
KGDS 240915Z 21003KT 18/15 A298 RMK A01 T01750153  RH  091%=      5-min Rain = 0
KGDS 240920Z 20002KT 17/15 A298 RMK A01 T01730153  RH  092%=      5-min Rain = 0
KGDS 240925Z 17002KT 17/15 A298 RMK A01 T01730152  RH  092%=      5-min Rain = 0
KGDS 240930Z 16003KT 17/15 A298 RMK A01 T01720152  RH  092%=      5-min Rain = 0
KGDS 240935Z 16004KT 17/15 A298 RMK A01 T01710151  RH  092%=      5-min Rain = 0
KGDS 240940Z 15004KT 17/15 A298 RMK A01 T01710151  RH  092%=      5-min Rain = 0
KGDS 240945Z 15003KT 17/15 A298 RMK A01 T01710150  RH  092%=      5-min Rain = 0
KGDS 240950Z 17002KT 17/15 A298 RMK A01 T01710150  RH  091%=      5-min Rain = 0
KGDS 240955Z 22001KT 17/15 A298 RMK A01 T01720151  RH  092%=      5-min Rain = 0
KGDS 241000Z 00000KT 17/15 A298 RMK A01 T01710152  RH  092%=      5-min Rain = 0
KGDS 241005Z 00000KT 17/15 A298 RMK A01 T01700151  RH  093%=      5-min Rain = 0
KGDS 241010Z 21000KT 17/15 A298 RMK A01 T01700152  RH  093%=      5-min Rain = 0
KGDS 241015Z 16001KT 17/15 A298 RMK A01 T01710152  RH  093%=      5-min Rain = 0
KGDS 241020Z 13003KT 17/15 A298 RMK A01 T01700150  RH  092%=      5-min Rain = 0
KGDS 241025Z 14003KT 17/15 A298 RMK A01 T01690150  RH  092%=      5-min Rain = 0
KGDS 241030Z 14004KT 17/15 A298 RMK A01 T01680150  RH  093%=      5-min Rain = 0
KGDS 241035Z 14005KT 17/15 A298 RMK A01 T01670150  RH  093%=      5-min Rain = 0
KGDS 241040Z 14004KT 17/15 A298 RMK A01 T01680150  RH  093%=      5-min Rain = 0
KGDS 241045Z 15004KT 17/15 A298 RMK A01 T01680150  RH  093%=      5-min Rain = 0
KGDS 241050Z 16004KT 17/15 A298 RMK A01 T01680150  RH  093%=      5-min Rain = 0
KGDS 241055Z 16004KT 17/15 A298 RMK A01 T01680150  RH  093%=      5-min Rain = 0
KGDS 241100Z 17005KT 17/15 A298 RMK A01 T01680150  RH  093%=      5-min Rain = 0
KGDS 241105Z 19004KT 17/15 A298 RMK A01 T01680152  RH  094%=      5-min Rain = 0
KGDS 241110Z 19004KT 17/15 A298 RMK A01 T01680152  RH  094%=      5-min Rain = 0
KGDS 241115Z 19004KT 17/15 A298 RMK A01 T01680151  RH  094%=      5-min Rain = 0
KGDS 241120Z 17003KT 17/15 A298 RMK A01 T01670150  RH  094%=      5-min Rain = 0
KGDS 241125Z 16003KT 17/15 A298 RMK A01 T01660149  RH  094%=      5-min Rain = 0
KGDS 241130Z 14003KT 16/15 A2981 RMK A01 T01640148  RH  094%=      5-min Rain = 0
KGDS 241135Z 15004KT 16/15 A2981 RMK A01 T01630148  RH  095%=      5-min Rain = 0
KGDS 241140Z 15004KT 16/15 A2981 RMK A01 T01640149  RH  095%=      5-min Rain = 0
KGDS 241145Z 16004KT 16/15 A2981 RMK A01 T01630149  RH  095%=      5-min Rain = 0
KGDS 241150Z 17004KT 16/15 A2981 RMK A01 T01630149  RH  096%=      5-min Rain = 0
KGDS 241155Z 18003KT 16/15 A2981 RMK A01 T01640150  RH  096%=      5-min Rain = 0
KGDS 241200Z 17002KT 16/15 A2981 RMK A01 T01630149  RH  096%=      5-min Rain = 0
KGDS 241205Z 15003KT 16/15 A2982 RMK A01 T01630149  RH  095%=      5-min Rain = 0
KGDS 241210Z 13004KT 16/15 A2982 RMK A01 T01640150  RH  096%=      5-min Rain = 0
KGDS 241215Z 13003KT 17/15 A2982 RMK A01 T01660152  RH  096%=      5-min Rain = 0
KGDS 241220Z 13003KT 17/15 A2982 RMK A01 T01660152  RH  095%=      5-min Rain = 0
KGDS 241225Z 14003KT 17/15 A2982 RMK A01 T01670153  RH  096%=      5-min Rain = 0
KGDS 241230Z 14003KT 17/16 A2982 RMK A01 T01700156  RH  095%=      5-min Rain = 0
KGDS 241235Z 14003KT 17/16 A2982 RMK A01 T01730157  RH  094%=      5-min Rain = 0
KGDS 241240Z 15002KT 18/16 A2982 RMK A01 T01750156  RH  093%=      5-min Rain = 0
KGDS 241245Z 15002KT 18/16 A2982 RMK A01 T01750155  RH  092%=      5-min Rain = 0
KGDS 241250Z 15003KT 18/16 A2982 RMK A01 T01780158  RH  092%=      5-min Rain = 0
KGDS 241255Z 15004KT 18/16 A2982 RMK A01 T01800157  RH  091%=      5-min Rain = 0
KGDS 241300Z 16005KT 19/16 A2982 RMK A01 T01850158  RH  088%=      5-min Rain = 0
KGDS 241305Z 17006KT 19/16 A2982 RMK A01 T01890158  RH  086%=      5-min Rain = 0
KGDS 241310Z 17008KT 19/16 A2981 RMK A01 T01890155  RH  085%=      5-min Rain = 0
KGDS 241315Z 17008KT 19/16 A2981 RMK A01 T01920157  RH  084%=      5-min Rain = 0
KGDS 241320Z 17008KT 19/16 A2981 RMK A01 T01940158  RH  083%=      5-min Rain = 0
KGDS 241325Z 17008KT 20/16 A2981 RMK A01 T01960160  RH  083%=      5-min Rain = 0
KGDS 241330Z 17007KT 20/16 A2982 RMK A01 T01990162  RH  083%=      5-min Rain = 0
KGDS 241335Z 17010KT 20/16 A2982 RMK A01 T01980161  RH  083%=      5-min Rain = 0
KGDS 241340Z 17010KT 20/16 A2982 RMK A01 T01970161  RH  084%=      5-min Rain = 0
KGDS 241345Z 17010KT 20/16 A2982 RMK A01 T01970161  RH  084%=      5-min Rain = 0
KGDS 241350Z 17009KT 20/16 A2982 RMK A01 T01970163  RH  085%=      5-min Rain = 0
KGDS 241355Z 17008KT 20/17 A2982 RMK A01 T01990165  RH  085%=      5-min Rain = 0
KGDS 241400Z 17008KT 20/17 A2982 RMK A01 T02040168  RH  084%=      5-min Rain = 0
KGDS 241405Z 17009KT 21/17 A2982 RMK A01 T02070170  RH  083%=      5-min Rain = 0
KGDS 241410Z 17010KT 21/17 A2982 RMK A01 T02100172  RH  083%=      5-min Rain = 0
KGDS 241415Z 16013G19KT 21/18 A2982 RMK A01 T02130175  RH  083%=      5-min Rain = 0
KGDS 241420Z 16012KT 22/18 A2982 RMK A01 T02190179  RH  082%=      5-min Rain = 0
KGDS 241425Z 17013KT 22/18 A2982 RMK A01 T02220179  RH  081%=      5-min Rain = 0
KGDS 241430Z 17012KT 23/18 A2982 RMK A01 T02260180  RH  079%=      5-min Rain = 0
KGDS 241435Z 18012G17KT 23/18 A2983 RMK A01 T02270180  RH  079%=      5-min Rain = 0
KGDS 241440Z 18014KT 23/18 A2982 RMK A01 T02290179  RH  077%=      5-min Rain = 0
KGDS 241445Z 17014G19KT 23/18 A2982 RMK A01 T02320180  RH  077%=      5-min Rain = 0
KGDS 241450Z 18013KT 24/18 A2983 RMK A01 T02350181  RH  076%=      5-min Rain = 0
KGDS 241455Z 18014KT 24/18 A2983 RMK A01 T02360181  RH  075%=      5-min Rain = 0
KGDS 241500Z 18017KT 24/18 A2982 RMK A01 T02370181  RH  074%=      5-min Rain = 0
KGDS 241505Z 18015KT 24/18 A2982 RMK A01 T02390182  RH  074%=      5-min Rain = 0
KGDS 241510Z 17015KT 24/18 A2982 RMK A01 T02410182  RH  073%=      5-min Rain = 0
KGDS 241515Z 17013KT 25/19 A2982 RMK A01 T02460186  RH  073%=      5-min Rain = 0
KGDS 241520Z 17016KT 25/18 A2982 RMK A01 T02460181  RH  071%=      5-min Rain = 0
KGDS 241525Z 17017KT 25/18 A2981 RMK A01 T02480179  RH  069%=      5-min Rain = 0
KGDS 241530Z 17016KT 25/18 A2982 RMK A01 T02500179  RH  068%=      5-min Rain = 0
KGDS 241535Z 17015G22KT 25/18 A2981 RMK A01 T02500178  RH  068%=      5-min Rain = 0
KGDS 241540Z 17014KT 25/18 A2981 RMK A01 T02540182  RH  068%=      5-min Rain = 0
KGDS 241545Z 17014KT 25/18 A2981 RMK A01 T02540180  RH  067%=      5-min Rain = 0
KGDS 241550Z 17014KT 26/18 A2981 RMK A01 T02570180  RH  066%=      5-min Rain = 0
KGDS 241555Z 17013KT 26/18 A298 RMK A01 T02590178  RH  064%=      5-min Rain = 0
KGDS 241600Z 18012G17KT 26/18 A298 RMK A01 T02600176  RH  063%=      5-min Rain = 0
KGDS 241605Z 16015KT 26/18 A298 RMK A01 T02640177  RH  062%=      5-min Rain = 0
KGDS 241610Z 17017G22KT 27/18 A298 RMK A01 T02650175  RH  061%=      5-min Rain = 0
KGDS 241615Z 18016G23KT 27/17 A298 RMK A01 T02670172  RH  059%=      5-min Rain = 0
KGDS 241620Z 19016G23KT 27/17 A298 RMK A01 T02710171  RH  057%=      5-min Rain = 0
KGDS 241625Z 18020G25KT 27/17 A298 RMK A01 T02710166  RH  055%=      5-min Rain = 0
KGDS 241630Z 19017G23KT 27/17 A298 RMK A01 T02710168  RH  056%=      5-min Rain = 0
KGDS 241635Z 17015G20KT 28/17 A298 RMK A01 T02760172  RH  056%=      5-min Rain = 0
KGDS 241640Z 18013G20KT 28/17 A298 RMK A01 T02790174  RH  055%=      5-min Rain = 0
KGDS 241645Z 18017G22KT 28/17 A298 RMK A01 T02800171  RH  054%=      5-min Rain = 0
KGDS 241650Z 17016G21KT 28/17 A298 RMK A01 T02780168  RH  054%=      5-min Rain = 0
KGDS 241655Z 18014G21KT 28/17 A298 RMK A01 T02800168  RH  053%=      5-min Rain = 0
KGDS 241700Z 17017G25KT 28/17 A298 RMK A01 T02830169  RH  053%=      5-min Rain = 0
KGDS 241705Z 17017G24KT 28/17 A298 RMK A01 T02830167  RH  052%=      5-min Rain = 0
KGDS 241710Z 18016G21KT 28/17 A298 RMK A01 T02810166  RH  052%=      5-min Rain = 0
KGDS 241715Z 17017G24KT 28/17 A298 RMK A01 T02830165  RH  051%=      5-min Rain = 0
KGDS 241720Z 17017KT 28/17 A298 RMK A01 T02840165  RH  051%=      5-min Rain = 0
KGDS 241725Z 16018G24KT 28/16 A2979 RMK A01 T02840164  RH  051%=      5-min Rain = 0
KGDS 241730Z 17019G25KT 29/16 A2979 RMK A01 T02850163  RH  050%=      5-min Rain = 0
KGDS 241735Z 17020G26KT 29/16 A2979 RMK A01 T02850163  RH  050%=      5-min Rain = 0
KGDS 241740Z 17019G24KT 29/17 A2979 RMK A01 T02870165  RH  050%=      5-min Rain = 0
KGDS 241745Z 17018G24KT 29/16 A2979 RMK A01 T02890164  RH  049%=      5-min Rain = 0
KGDS 241750Z 17018G24KT 29/17 A2979 RMK A01 T02900165  RH  049%=      5-min Rain = 0
KGDS 241755Z 17018G24KT 29/16 A2978 RMK A01 T02890163  RH  049%=      5-min Rain = 0
KGDS 241800Z 16018G23KT 29/17 A2978 RMK A01 T02880166  RH  050%=      5-min Rain = 0
KGDS 241805Z 17019G25KT 29/17 A2978 RMK A01 T02910166  RH  049%=      5-min Rain = 0
KGDS 241810Z 16021G29KT 29/16 A2978 RMK A01 T02910163  RH  048%=      5-min Rain = 0
KGDS 241815Z 17018KT 29/17 A2978 RMK A01 T02920166  RH  049%=      5-min Rain = 0
KGDS 241820Z 16018G31KT 29/17 A2977 RMK A01 T02930167  RH  049%=      5-min Rain = 0
KGDS 241825Z 17021G31KT 30/17 A2977 RMK A01 T02950168  RH  049%=      5-min Rain = 0
KGDS 241830Z 18020G26KT 29/17 A2977 RMK A01 T02930166  RH  049%=      5-min Rain = 0
KGDS 241835Z 17017G26KT 30/17 A2977 RMK A01 T02960169  RH  049%=      5-min Rain = 0
KGDS 241840Z 17019G25KT 30/17 A2977 RMK A01 T02970170  RH  049%=      5-min Rain = 0
KGDS 241845Z 17018G23KT 30/17 A2977 RMK A01 T02970169  RH  049%=      5-min Rain = 0
KGDS 241850Z 17016G23KT 30/17 A2977 RMK A01 T02970170  RH  049%=      5-min Rain = 0
KGDS 241855Z 17017G22KT 30/17 A2976 RMK A01 T03020172  RH  048%=      5-min Rain = 0
KGDS 241900Z 18015G25KT 30/17 A2976 RMK A01 T03000170  RH  048%=      5-min Rain = 0
KGDS 241905Z 16014G19KT 30/17 A2976 RMK A01 T03020173  RH  048%=      5-min Rain = 0
KGDS 241910Z 17013G22KT 30/17 A2976 RMK A01 T03010173  RH  048%=      5-min Rain = 0
KGDS 241915Z 17017G23KT 30/17 A2976 RMK A01 T03020171  RH  048%=      5-min Rain = 0
KGDS 241920Z 16016G21KT 30/17 A2976 RMK A01 T03040171  RH  047%=      5-min Rain = 0
KGDS 241925Z 18019KT 31/17 A2976 RMK A01 T03060170  RH  046%=      5-min Rain = 0
KGDS 241930Z 17014G19KT 31/17 A2975 RMK A01 T03060170  RH  046%=      5-min Rain = 0
KGDS 241935Z 16015G21KT 30/17 A2975 RMK A01 T03010169  RH  047%=      5-min Rain = 0
KGDS 241940Z 16014G20KT 31/17 A2975 RMK A01 T03070173  RH  047%=      5-min Rain = 0
KGDS 241945Z 17017G22KT 31/17 A2974 RMK A01 T03090174  RH  047%=      5-min Rain = 0
KGDS 241950Z 16016G22KT 31/17 A2974 RMK A01 T03110173  RH  046%=      5-min Rain = 0
KGDS 241955Z 18016G21KT 31/17 A2974 RMK A01 T03090173  RH  046%=      5-min Rain = 0
KGDS 242000Z 17015G20KT 31/17 A2974 RMK A01 T03070172  RH  047%=      5-min Rain = 0
KGDS 242005Z 17017G25KT 31/18 A2973 RMK A01 T03080175  RH  047%=      5-min Rain = 0
KGDS 242010Z 16016G21KT 31/17 A2973 RMK A01 T03110174  RH  046%=      5-min Rain = 0
KGDS 242015Z 19011G17KT 31/18 A2973 RMK A01 T03140177  RH  046%=      5-min Rain = 0
KGDS 242020Z 17014G21KT 32/18 A2973 RMK A01 T03160176  RH  046%=      5-min Rain = 0
KGDS 242025Z 18014G19KT 31/18 A2973 RMK A01 T03130177  RH  047%=      5-min Rain = 0
KGDS 242030Z 18014KT 32/18 A2972 RMK A01 T03150177  RH  046%=      5-min Rain = 0
KGDS 242035Z 17014G21KT 31/18 A2972 RMK A01 T03090178  RH  048%=      5-min Rain = 0
KGDS 242040Z 17015KT 31/18 A2972 RMK A01 T03110178  RH  048%=      5-min Rain = 0
KGDS 242045Z 17012G19KT 31/18 A2972 RMK A01 T03100180  RH  049%=      5-min Rain = 0
KGDS 242050Z 18013KT 32/18 A2972 RMK A01 T03220183  RH  046%=      5-min Rain = 0
KGDS 242055Z 18012G18KT 32/18 A2971 RMK A01 T03220182  RH  046%=      5-min Rain = 0
KGDS 242100Z 16012KT 31/18 A2971 RMK A01 T03140180  RH  047%=      5-min Rain = 0
KGDS 242105Z 18012G17KT 32/18 A2971 RMK A01 T03180184  RH  047%=      5-min Rain = 0
KGDS 242110Z 19012G18KT 32/18 A2971 RMK A01 T03190179  RH  046%=      5-min Rain = 0
KGDS 242115Z 18012G19KT 32/18 A2971 RMK A01 T03160180  RH  047%=      5-min Rain = 0
KGDS 242120Z 17012G20KT 31/18 A297 RMK A01 T03100178  RH  048%=      5-min Rain = 0
KGDS 242125Z 17011G18KT 31/18 A297 RMK A01 T03110179  RH  048%=      5-min Rain = 0
KGDS 242130Z 16014G21KT 32/18 A297 RMK A01 T03210184  RH  047%=      5-min Rain = 0
KGDS 242135Z 16012G17KT 31/18 A297 RMK A01 T03140179  RH  047%=      5-min Rain = 0
KGDS 242140Z 17011KT 31/18 A297 RMK A01 T03120180  RH  048%=      5-min Rain = 0
KGDS 242145Z 16013G18KT 31/18 A297 RMK A01 T03090179  RH  048%=      5-min Rain = 0
KGDS 242150Z 16014KT 31/18 A2969 RMK A01 T03090179  RH  048%=      5-min Rain = 0
KGDS 242155Z 16013G18KT 31/18 A2969 RMK A01 T03120180  RH  048%=      5-min Rain = 0
KGDS 242200Z 16013G19KT 32/18 A2968 RMK A01 T03160180  RH  047%=      5-min Rain = 0
KGDS 242205Z 16012G19KT 32/18 A2968 RMK A01 T03160181  RH  047%=      5-min Rain = 0
KGDS 242210Z 16015KT 32/18 A2968 RMK A01 T03180181  RH  047%=      5-min Rain = 0
KGDS 242215Z 15013KT 32/18 A2967 RMK A01 T03170180  RH  046%=      5-min Rain = 0
KGDS 242220Z 15011G18KT 32/18 A2967 RMK A01 T03190180  RH  046%=      5-min Rain = 0
KGDS 242225Z 15014G19KT 32/18 A2967 RMK A01 T03190178  RH  046%=      5-min Rain = 0
KGDS 242230Z 15013KT 31/18 A2967 RMK A01 T03130177  RH  047%=      5-min Rain = 0
KGDS 242235Z 15011KT 31/17 A2966 RMK A01 T03110174  RH  046%=      5-min Rain = 0
KGDS 242240Z 16012KT 32/18 A2966 RMK A01 T03160177  RH  046%=      5-min Rain = 0
KGDS 242245Z 13012KT 32/18 A2965 RMK A01 T03170179  RH  046%=      5-min Rain = 0
KGDS 242250Z 15013KT 32/18 A2965 RMK A01 T03160178  RH  046%=      5-min Rain = 0
KGDS 242255Z 15013KT 32/18 A2965 RMK A01 T03170177  RH  046%=      5-min Rain = 0
KGDS 242300Z 16014KT 32/18 A2964 RMK A01 T03170175  RH  045%=      5-min Rain = 0
KGDS 242305Z 15011KT 32/18 A2964 RMK A01 T03170175  RH  045%=      5-min Rain = 0
KGDS 242310Z 16013KT 32/18 A2964 RMK A01 T03180178  RH  045%=      5-min Rain = 0
KGDS 242315Z 15016KT 32/18 A2964 RMK A01 T03180175  RH  045%=      5-min Rain = 0
KGDS 242320Z 16015G20KT 31/17 A2964 RMK A01 T03110174  RH  046%=      5-min Rain = 0
KGDS 242325Z 14013G18KT 31/18 A2964 RMK A01 T03120177  RH  047%=      5-min Rain = 0
KGDS 242330Z 13017KT 32/18 A2964 RMK A01 T03150179  RH  047%=      5-min Rain = 0
KGDS 242335Z 13018G23KT 31/18 A2964 RMK A01 T03110177  RH  047%=      5-min Rain = 0
KGDS 242340Z 13017G22KT 31/18 A2963 RMK A01 T03080175  RH  047%=      5-min Rain = 0
KGDS 242345Z 14014G19KT 31/18 A2963 RMK A01 T03120177  RH  047%=      5-min Rain = 0
KGDS 242350Z 14015G20KT 31/18 A2963 RMK A01 T03140178  RH  047%=      5-min Rain = 0
KGDS 242355Z 14019KT 31/17 A2964 RMK A01 T03130173  RH  046%=      5-min Rain = 0
KGDS 250000Z 15017KT 31/17 A2964 RMK A01 T03120174  RH  046%=      5-min Rain = 0
KGDS 250005Z 14014KT 31/17 A2963 RMK A01 T03100174  RH  047%=      5-min Rain = 0
KGDS 250010Z 13015G20KT 31/17 A2963 RMK A01 T03080173  RH  047%=      5-min Rain = 0
KGDS 250015Z 14017G22KT 31/17 A2963 RMK A01 T03070169  RH  046%=      5-min Rain = 0
KGDS 250020Z 14016G21KT 31/17 A2963 RMK A01 T03060168  RH  046%=      5-min Rain = 0
KGDS 250025Z 13016KT 31/17 A2963 RMK A01 T03050170  RH  047%=      5-min Rain = 0
KGDS 250030Z 12018G25KT 30/18 A2963 RMK A01 T02990178  RH  051%=      5-min Rain = 0
KGDS 250035Z 11018KT 30/18 A2963 RMK A01 T02950178  RH  052%=      5-min Rain = 0
KGDS 250040Z 12016G22KT 29/18 A2962 RMK A01 T02930179  RH  053%=      5-min Rain = 0
KGDS 250045Z 11014G19KT 29/18 A2962 RMK A01 T02920179  RH  053%=      5-min Rain = 0
KGDS 250050Z 12015KT 29/18 A2962 RMK A01 T02910178  RH  053%=      5-min Rain = 0
KGDS 250055Z 12015G20KT 29/18 A2963 RMK A01 T02900178  RH  054%=      5-min Rain = 0
KGDS 250100Z 12016G22KT 29/18 A2963 RMK A01 T02880178  RH  054%=      5-min Rain = 0
KGDS 250105Z 12016G21KT 29/18 A2962 RMK A01 T02880178  RH  054%=      5-min Rain = 0
KGDS 250110Z 12018G28KT 29/18 A2963 RMK A01 T02870178  RH  054%=      5-min Rain = 0
KGDS 250115Z 13031G41KT 27/18 A2964 RMK A01 T02730177  RH  059%=      5-min Rain = 0
KGDS 250120Z 13027G36KT 26/18 A2965 RMK A01 T02580175  RH  063%=      5-min Rain = 0
KGDS 250125Z 13023G32KT 26/18 A2966 RMK A01 T02550176  RH  065%=      5-min Rain = 0
KGDS 250130Z 14029G37KT 25/18 A2966 RMK A01 T02540175  RH  065%=      5-min Rain = 0
KGDS 250135Z 13027G32KT 25/17 A2966 RMK A01 T02510174  RH  066%=      5-min Rain = 0
KGDS 250140Z 13020G28KT 25/18 A2967 RMK A01 T02490175  RH  067%=      5-min Rain = 0
KGDS 250145Z 13020G25KT 25/18 A2967 RMK A01 T02470176  RH  068%=      5-min Rain = 0
KGDS 250150Z 13021G26KT 25/18 A2967 RMK A01 T02460176  RH  068%=      5-min Rain = 0
KGDS 250155Z 12018G24KT 24/18 A2967 RMK A01 T02440176  RH  069%=      5-min Rain = 0
KGDS 250200Z 13016G22KT 24/18 A2968 RMK A01 T02430176  RH  070%=      5-min Rain = 0
KGDS 250205Z 13017G23KT 24/18 A297 RMK A01 T02430175  RH  069%=      5-min Rain = 0
KGDS 250210Z 14016KT 24/18 A2971 RMK A01 T02430175  RH  069%=      5-min Rain = 0
KGDS 250215Z 14018KT 24/17 A2971 RMK A01 T02430173  RH  068%=      5-min Rain = 0
KGDS 250220Z 14016G23KT 24/17 A2971 RMK A01 T02430172  RH  068%=      5-min Rain = 0
KGDS 250225Z 19020G31KT 24/17 A2974 RMK A01 T02420168  RH  067%=      5-min Rain = 0
KGDS 250230Z 24024G32KT 22/14 A2975 RMK A01 T02150135  RH  063%=      5-min Rain = 0
KGDS 250235Z 25022G29KT 20/14 A2975 RMK A01 T02040137  RH  068%=      5-min Rain = 0
KGDS 250240Z 24020G28KT 19/14 A2976 RMK A01 T01940141  RH  075%=      5-min Rain = 0
KGDS 250245Z 25015G23KT 19/14 A2977 RMK A01 T01910144  RH  077%=      5-min Rain = 0
KGDS 250250Z 24014KT 19/15 A298 RMK A01 T01850152  RH  085%=      5-min Rain = 0.02
KGDS 250255Z 22014KT 18/16 A2981 RMK A01 T01780156  RH  091%=      5-min Rain = 0.08
KGDS 250300Z 21013KT 17/16 A2981 RMK A01 T01740156  RH  093%=      5-min Rain = 0.07
KGDS 250305Z 21011KT 17/16 A2983 RMK A01 T01720156  RH  095%=      5-min Rain = 0.02
KGDS 250310Z 21007KT 17/16 A2985 RMK A01 T01720157  RH  095%=      5-min Rain = 0.02
KGDS 250315Z 19010KT 17/16 A2985 RMK A01 T01720157  RH  095%=      5-min Rain = 0.01
KGDS 250320Z 19010KT 17/16 A2985 RMK A01 T01720158  RH  096%=      5-min Rain = 0.01
KGDS 250325Z 19007KT 17/16 A2986 RMK A01 T01700156  RH  096%=      5-min Rain = 0.01
KGDS 250330Z 23003KT 17/16 A2987 RMK A01 T01700156  RH  096%=      5-min Rain = 0.01
KGDS 250335Z 27005KT 17/16 A2988 RMK A01 T01700157  RH  096%=      5-min Rain = 0
KGDS 250340Z 27004KT 17/16 A2988 RMK A01 T01700157  RH  096%=      5-min Rain = 0.01
KGDS 250345Z 28004KT 17/16 A2989 RMK A01 T01700156  RH  096%=      5-min Rain = 0.01
KGDS 250350Z 33005KT 17/16 A2989 RMK A01 T01710157  RH  096%=      5-min Rain = 0.03
KGDS 250355Z 34007G13KT 17/16 A2989 RMK A01 T01710158  RH  096%=      5-min Rain = 0.02
KGDS 250400Z 36015G23KT 17/16 A2989 RMK A01 T01700155  RH  095%=      5-min Rain = 0.02
KGDS 250405Z 02017G27KT 16/15 A2988 RMK A01 T01620146  RH  094%=      5-min Rain = 0.02
KGDS 250410Z 04021G29KT 16/15 A2988 RMK A01 T01610146  RH  094%=      5-min Rain = 0.01
KGDS 250415Z 04016KT 16/14 A2989 RMK A01 T01590142  RH  094%=      5-min Rain = 0.01
KGDS 250420Z 04015KT 16/14 A2989 RMK A01 T01560141  RH  094%=      5-min Rain = 0.02
KGDS 250425Z 04014G19KT 15/14 A2989 RMK A01 T01540139  RH  094%=      5-min Rain = 0.02
KGDS 250430Z 04013G18KT 15/14 A299 RMK A01 T01520137  RH  094%=      5-min Rain = 0.02
KGDS 250435Z 03011KT 15/14 A299 RMK A01 T01500135  RH  095%=      5-min Rain = 0.03
KGDS 250440Z 03009KT 15/14 A299 RMK A01 T01490135  RH  095%=      5-min Rain = 0.02
KGDS 250445Z 03008KT 15/14 A299 RMK A01 T01480135  RH  096%=      5-min Rain = 0.03
KGDS 250450Z 03008KT 15/14 A299 RMK A01 T01480136  RH  096%=      5-min Rain = 0.03
KGDS 250455Z 03009KT 15/14 A299 RMK A01 T01500137  RH  096%=      5-min Rain = 0.02

Page generated in 0.0149 seconds.